sensor_id;sensor_type;location;lat;lon;timestamp;temperature;humidity
25360;DHT22;13311;51.386;0.016;2024-01-06T00:02:17;9.20;99.90
25360;DHT22;13311;51.386;0.016;2024-01-06T00:07:18;9.30;99.90
25360;DHT22;13311;51.386;0.016;2024-01-06T00:12:19;9.40;99.90
25360;DHT22;13311;51.386;0.016;2024-01-06T00:17:19;9.40;99.90
25360;DHT22;13311;51.386;0.016;2024-01-06T00:22:20;9.40;99.90
25360;DHT22;13311;51.386;0.016;2024-01-06T00:27:21;9.40;99.90
25360;DHT22;13311;51.386;0.016;2024-01-06T00:32:22;9.40;99.90
25360;DHT22;13311;51.386;0.016;2024-01-06T00:37:22;9.40;99.80
25360;DHT22;13311;51.386;0.016;2024-01-06T00:42:24;9.40;99.80
25360;DHT22;13311;51.386;0.016;2024-01-06T00:47:24;9.40;99.90
25360;DHT22;13311;51.386;0.016;2024-01-06T00:52:25;9.40;99.90
25360;DHT22;13311;51.386;0.016;2024-01-06T00:57:26;9.30;99.90
25360;DHT22;13311;51.386;0.016;2024-01-06T01:02:26;9.30;99.90
25360;DHT22;13311;51.386;0.016;2024-01-06T01:07:27;9.40;99.90
25360;DHT22;13311;51.386;0.016;2024-01-06T01:12:28;9.30;99.90
25360;DHT22;13311;51.386;0.016;2024-01-06T01:17:29;9.30;99.90
25360;DHT22;13311;51.386;0.016;2024-01-06T01:22:30;9.30;99.90
25360;DHT22;13311;51.386;0.016;2024-01-06T01:27:31;9.30;99.90
25360;DHT22;13311;51.386;0.016;2024-01-06T01:32:31;9.40;99.90
25360;DHT22;13311;51.386;0.016;2024-01-06T01:37:32;9.40;99.90
25360;DHT22;13311;51.386;0.016;2024-01-06T01:42:33;9.40;99.90
25360;DHT22;13311;51.386;0.016;2024-01-06T01:47:34;9.30;99.90
25360;DHT22;13311;51.386;0.016;2024-01-06T01:52:36;9.40;99.90
25360;DHT22;13311;51.386;0.016;2024-01-06T01:57:37;9.30;99.90
25360;DHT22;13311;51.386;0.016;2024-01-06T02:02:38;9.30;99.90
25360;DHT22;13311;51.386;0.016;2024-01-06T02:07:40;9.30;99.90
25360;DHT22;13311;51.386;0.016;2024-01-06T02:12:41;9.30;99.90
25360;DHT22;13311;51.386;0.016;2024-01-06T02:17:41;9.40;99.90
25360;DHT22;13311;51.386;0.016;2024-01-06T02:22:43;9.40;99.90
25360;DHT22;13311;51.386;0.016;2024-01-06T02:27:43;9.40;99.90
25360;DHT22;13311;51.386;0.016;2024-01-06T02:32:44;9.40;99.90
25360;DHT22;13311;51.386;0.016;2024-01-06T02:37:45;9.40;99.90
25360;DHT22;13311;51.386;0.016;2024-01-06T02:42:45;9.50;99.90
25360;DHT22;13311;51.386;0.016;2024-01-06T02:47:46;9.40;99.90
25360;DHT22;13311;51.386;0.016;2024-01-06T02:52:47;9.40;99.90
25360;DHT22;13311;51.386;0.016;2024-01-06T02:57:48;9.40;99.70
25360;DHT22;13311;51.386;0.016;2024-01-06T03:02:48;9.50;99.70
25360;DHT22;13311;51.386;0.016;2024-01-06T03:07:49;9.50;99.80
25360;DHT22;13311;51.386;0.016;2024-01-06T03:12:50;9.50;99.60
25360;DHT22;13311;51.386;0.016;2024-01-06T03:17:50;9.50;99.50
25360;DHT22;13311;51.386;0.016;2024-01-06T03:22:51;9.60;99.50
25360;DHT22;13311;51.386;0.016;2024-01-06T03:27:52;9.60;99.60
25360;DHT22;13311;51.386;0.016;2024-01-06T03:32:52;9.60;99.60
25360;DHT22;13311;51.386;0.016;2024-01-06T03:37:53;9.70;99.50
25360;DHT22;13311;51.386;0.016;2024-01-06T03:42:54;9.80;99.00
25360;DHT22;13311;51.386;0.016;2024-01-06T03:47:55;9.80;98.90
25360;DHT22;13311;51.386;0.016;2024-01-06T03:52:56;9.70;98.80
25360;DHT22;13311;51.386;0.016;2024-01-06T03:57:56;9.60;98.80
25360;DHT22;13311;51.386;0.016;2024-01-06T04:02:57;9.60;98.80
25360;DHT22;13311;51.386;0.016;2024-01-06T04:07:58;9.60;98.60
25360;DHT22;13311;51.386;0.016;2024-01-06T04:12:58;9.60;98.40
25360;DHT22;13311;51.386;0.016;2024-01-06T04:18:02;9.40;97.90
25360;DHT22;13311;51.386;0.016;2024-01-06T04:23:04;9.50;97.90
25360;DHT22;13311;51.386;0.016;2024-01-06T04:28:04;9.60;98.00
25360;DHT22;13311;51.386;0.016;2024-01-06T04:33:05;9.50;97.80
25360;DHT22;13311;51.386;0.016;2024-01-06T04:38:07;9.50;97.70
25360;DHT22;13311;51.386;0.016;2024-01-06T04:43:09;9.50;97.60
25360;DHT22;13311;51.386;0.016;2024-01-06T04:48:09;9.40;97.40
25360;DHT22;13311;51.386;0.016;2024-01-06T04:53:10;9.40;97.20
25360;DHT22;13311;51.386;0.016;2024-01-06T04:58:11;9.30;97.40
25360;DHT22;13311;51.386;0.016;2024-01-06T05:03:12;9.30;97.40
25360;DHT22;13311;51.386;0.016;2024-01-06T05:08:12;9.40;97.30
25360;DHT22;13311;51.386;0.016;2024-01-06T05:13:13;9.40;97.00
25360;DHT22;13311;51.386;0.016;2024-01-06T05:18:14;9.30;97.00
25360;DHT22;13311;51.386;0.016;2024-01-06T05:23:15;9.30;97.00
25360;DHT22;13311;51.386;0.016;2024-01-06T05:28:15;9.30;97.00
25360;DHT22;13311;51.386;0.016;2024-01-06T05:33:16;9.30;97.00
25360;DHT22;13311;51.386;0.016;2024-01-06T05:38:17;9.30;97.30
25360;DHT22;13311;51.386;0.016;2024-01-06T05:43:17;9.30;96.90
25360;DHT22;13311;51.386;0.016;2024-01-06T05:48:18;9.20;97.10
25360;DHT22;13311;51.386;0.016;2024-01-06T05:53:19;9.10;97.00
25360;DHT22;13311;51.386;0.016;2024-01-06T05:58:20;9.20;96.90
25360;DHT22;13311;51.386;0.016;2024-01-06T06:03:20;9.10;96.90
25360;DHT22;13311;51.386;0.016;2024-01-06T06:08:21;9.10;97.10
25360;DHT22;13311;51.386;0.016;2024-01-06T06:13:22;9.10;97.00
25360;DHT22;13311;51.386;0.016;2024-01-06T06:18:22;9.00;97.10
25360;DHT22;13311;51.386;0.016;2024-01-06T06:23:23;9.10;97.10
25360;DHT22;13311;51.386;0.016;2024-01-06T06:28:24;9.20;96.90
25360;DHT22;13311;51.386;0.016;2024-01-06T06:33:25;9.20;97.00
25360;DHT22;13311;51.386;0.016;2024-01-06T06:38:26;9.30;97.00
25360;DHT22;13311;51.386;0.016;2024-01-06T06:43:27;9.20;96.90
25360;DHT22;13311;51.386;0.016;2024-01-06T06:48:28;9.20;96.90
25360;DHT22;13311;51.386;0.016;2024-01-06T06:53:29;9.20;96.80
25360;DHT22;13311;51.386;0.016;2024-01-06T06:58:29;9.30;96.70
25360;DHT22;13311;51.386;0.016;2024-01-06T07:03:30;9.10;96.50
25360;DHT22;13311;51.386;0.016;2024-01-06T07:08:31;9.20;96.60
25360;DHT22;13311;51.386;0.016;2024-01-06T07:13:31;9.30;96.70
25360;DHT22;13311;51.386;0.016;2024-01-06T07:18:32;9.40;96.50
25360;DHT22;13311;51.386;0.016;2024-01-06T07:23:33;9.30;96.40
25360;DHT22;13311;51.386;0.016;2024-01-06T07:28:35;9.30;96.60
25360;DHT22;13311;51.386;0.016;2024-01-06T07:33:35;9.40;96.60
25360;DHT22;13311;51.386;0.016;2024-01-06T07:38:36;9.40;96.80
25360;DHT22;13311;51.386;0.016;2024-01-06T07:43:37;9.50;96.50
25360;DHT22;13311;51.386;0.016;2024-01-06T07:48:37;9.80;96.70
25360;DHT22;13311;51.386;0.016;2024-01-06T07:53:38;9.90;96.30
25360;DHT22;13311;51.386;0.016;2024-01-06T07:58:39;9.80;96.00
25360;DHT22;13311;51.386;0.016;2024-01-06T08:03:39;9.60;96.00
25360;DHT22;13311;51.386;0.016;2024-01-06T08:08:40;9.60;96.40
25360;DHT22;13311;51.386;0.016;2024-01-06T08:13:41;9.40;96.20
25360;DHT22;13311;51.386;0.016;2024-01-06T08:18:41;9.40;96.30
25360;DHT22;13311;51.386;0.016;2024-01-06T08:23:42;9.40;96.50
25360;DHT22;13311;51.386;0.016;2024-01-06T08:28:43;9.50;96.40
25360;DHT22;13311;51.386;0.016;2024-01-06T08:33:44;9.40;96.40
25360;DHT22;13311;51.386;0.016;2024-01-06T08:38:44;9.20;96.70
25360;DHT22;13311;51.386;0.016;2024-01-06T08:43:45;9.20;97.10
25360;DHT22;13311;51.386;0.016;2024-01-06T08:48:46;9.20;97.00
25360;DHT22;13311;51.386;0.016;2024-01-06T08:53:46;9.40;96.70
25360;DHT22;13311;51.386;0.016;2024-01-06T08:58:47;9.40;97.20
25360;DHT22;13311;51.386;0.016;2024-01-06T09:03:48;9.40;96.10
25360;DHT22;13311;51.386;0.016;2024-01-06T09:08:50;9.20;96.20
25360;DHT22;13311;51.386;0.016;2024-01-06T09:13:51;9.10;95.90
25360;DHT22;13311;51.386;0.016;2024-01-06T09:18:53;9.10;95.50
25360;DHT22;13311;51.386;0.016;2024-01-06T09:23:53;9.30;95.70
25360;DHT22;13311;51.386;0.016;2024-01-06T09:28:54;9.30;95.30
25360;DHT22;13311;51.386;0.016;2024-01-06T09:33:55;9.20;95.40
25360;DHT22;13311;51.386;0.016;2024-01-06T09:38:55;9.40;95.40
25360;DHT22;13311;51.386;0.016;2024-01-06T09:43:56;9.50;95.20
25360;DHT22;13311;51.386;0.016;2024-01-06T09:48:58;9.50;95.40
25360;DHT22;13311;51.386;0.016;2024-01-06T09:54:00;9.50;95.10
25360;DHT22;13311;51.386;0.016;2024-01-06T09:59:02;9.40;94.80
25360;DHT22;13311;51.386;0.016;2024-01-06T10:04:03;9.50;95.10
25360;DHT22;13311;51.386;0.016;2024-01-06T10:09:03;9.40;94.80
25360;DHT22;13311;51.386;0.016;2024-01-06T10:14:06;9.30;95.00
25360;DHT22;13311;51.386;0.016;2024-01-06T10:19:06;9.40;95.20
25360;DHT22;13311;51.386;0.016;2024-01-06T10:24:08;9.50;95.50
25360;DHT22;13311;51.386;0.016;2024-01-06T10:29:10;9.60;95.20
25360;DHT22;13311;51.386;0.016;2024-01-06T10:34:11;9.80;94.90
25360;DHT22;13311;51.386;0.016;2024-01-06T10:39:12;9.90;95.10
25360;DHT22;13311;51.386;0.016;2024-01-06T10:44:16;10.10;94.90
25360;DHT22;13311;51.386;0.016;2024-01-06T10:49:17;10.20;95.20
25360;DHT22;13311;51.386;0.016;2024-01-06T10:54:21;10.40;94.90
25360;DHT22;13311;51.386;0.016;2024-01-06T10:59:23;10.20;94.70
25360;DHT22;13311;51.386;0.016;2024-01-06T11:04:27;10.20;94.80
25360;DHT22;13311;51.386;0.016;2024-01-06T11:09:32;10.10;95.10
25360;DHT22;13311;51.386;0.016;2024-01-06T11:14:38;10.20;95.20
25360;DHT22;13311;51.386;0.016;2024-01-06T11:19:41;10.20;95.10
25360;DHT22;13311;51.386;0.016;2024-01-06T11:24:56;10.30;95.10
25360;DHT22;13311;51.386;0.016;2024-01-06T11:29:58;10.30;95.30
25360;DHT22;13311;51.386;0.016;2024-01-06T11:35:14;10.40;95.10
25360;DHT22;13311;51.386;0.016;2024-01-06T11:40:35;10.70;95.00
25360;DHT22;13311;51.386;0.016;2024-01-06T11:45:38;10.40;94.50
25360;DHT22;13311;51.386;0.016;2024-01-06T11:50:41;10.40;94.60
25360;DHT22;13311;51.386;0.016;2024-01-06T11:55:42;10.30;94.60
25360;DHT22;13311;51.386;0.016;2024-01-06T12:00:43;10.30;94.40
25360;DHT22;13311;51.386;0.016;2024-01-06T12:05:44;10.10;95.00
25360;DHT22;13311;51.386;0.016;2024-01-06T12:10:45;10.10;94.90
25360;DHT22;13311;51.386;0.016;2024-01-06T12:15:46;10.00;95.20
25360;DHT22;13311;51.386;0.016;2024-01-06T12:20:46;10.00;95.20
25360;DHT22;13311;51.386;0.016;2024-01-06T12:25:47;10.00;95.10
25360;DHT22;13311;51.386;0.016;2024-01-06T12:30:50;10.20;95.00
25360;DHT22;13311;51.386;0.016;2024-01-06T12:35:50;10.30;95.00
25360;DHT22;13311;51.386;0.016;2024-01-06T12:40:51;10.40;94.20
25360;DHT22;13311;51.386;0.016;2024-01-06T12:45:52;10.40;94.80
25360;DHT22;13311;51.386;0.016;2024-01-06T12:50:53;10.30;94.40
25360;DHT22;13311;51.386;0.016;2024-01-06T12:55:54;10.40;94.90
25360;DHT22;13311;51.386;0.016;2024-01-06T13:00:55;10.30;94.60
25360;DHT22;13311;51.386;0.016;2024-01-06T13:05:55;10.40;94.90
25360;DHT22;13311;51.386;0.016;2024-01-06T13:10:56;10.20;94.60
25360;DHT22;13311;51.386;0.016;2024-01-06T13:15:57;10.20;94.30
25360;DHT22;13311;51.386;0.016;2024-01-06T13:20:58;10.10;94.00
25360;DHT22;13311;51.386;0.016;2024-01-06T13:25:59;9.90;94.70
25360;DHT22;13311;51.386;0.016;2024-01-06T13:30:59;10.00;94.90
25360;DHT22;13311;51.386;0.016;2024-01-06T13:36:00;10.00;95.10
25360;DHT22;13311;51.386;0.016;2024-01-06T13:41:01;10.00;95.70
25360;DHT22;13311;51.386;0.016;2024-01-06T13:46:03;10.10;95.70
25360;DHT22;13311;51.386;0.016;2024-01-06T13:51:04;10.10;95.60
25360;DHT22;13311;51.386;0.016;2024-01-06T13:56:05;9.90;95.40
25360;DHT22;13311;51.386;0.016;2024-01-06T14:01:06;9.80;95.80
25360;DHT22;13311;51.386;0.016;2024-01-06T14:06:10;9.80;96.00
25360;DHT22;13311;51.386;0.016;2024-01-06T14:11:11;9.90;95.80
25360;DHT22;13311;51.386;0.016;2024-01-06T14:16:12;9.90;95.70
25360;DHT22;13311;51.386;0.016;2024-01-06T14:21:12;9.90;95.50
25360;DHT22;13311;51.386;0.016;2024-01-06T14:26:19;10.10;95.80
25360;DHT22;13311;51.386;0.016;2024-01-06T14:31:20;10.40;95.70
25360;DHT22;13311;51.386;0.016;2024-01-06T14:36:21;10.40;95.40
25360;DHT22;13311;51.386;0.016;2024-01-06T14:41:21;10.40;94.70
25360;DHT22;13311;51.386;0.016;2024-01-06T14:46:22;10.40;94.30
25360;DHT22;13311;51.386;0.016;2024-01-06T14:51:23;10.40;94.20
25360;DHT22;13311;51.386;0.016;2024-01-06T14:56:25;10.30;94.20
25360;DHT22;13311;51.386;0.016;2024-01-06T15:01:26;10.30;94.10
25360;DHT22;13311;51.386;0.016;2024-01-06T15:06:27;10.20;94.20
25360;DHT22;13311;51.386;0.016;2024-01-06T15:11:28;10.40;95.10
25360;DHT22;13311;51.386;0.016;2024-01-06T15:16:28;10.20;94.10
25360;DHT22;13311;51.386;0.016;2024-01-06T15:21:29;10.00;94.10
25360;DHT22;13311;51.386;0.016;2024-01-06T15:26:34;9.90;94.30
25360;DHT22;13311;51.386;0.016;2024-01-06T15:31:34;9.80;94.30
25360;DHT22;13311;51.386;0.016;2024-01-06T15:36:35;9.80;94.50
25360;DHT22;13311;51.386;0.016;2024-01-06T15:41:36;9.80;95.40
25360;DHT22;13311;51.386;0.016;2024-01-06T15:46:37;9.80;94.60
25360;DHT22;13311;51.386;0.016;2024-01-06T15:51:38;9.70;94.50
25360;DHT22;13311;51.386;0.016;2024-01-06T15:56:38;9.50;94.40
25360;DHT22;13311;51.386;0.016;2024-01-06T16:01:40;9.40;94.60
25360;DHT22;13311;51.386;0.016;2024-01-06T16:06:41;9.30;94.70
25360;DHT22;13311;51.386;0.016;2024-01-06T16:11:41;9.10;95.00
25360;DHT22;13311;51.386;0.016;2024-01-06T16:16:42;9.10;95.40
25360;DHT22;13311;51.386;0.016;2024-01-06T16:21:43;9.10;95.40
25360;DHT22;13311;51.386;0.016;2024-01-06T16:26:45;9.10;95.60
25360;DHT22;13311;51.386;0.016;2024-01-06T16:31:46;9.10;95.80
25360;DHT22;13311;51.386;0.016;2024-01-06T16:36:46;9.20;95.80
25360;DHT22;13311;51.386;0.016;2024-01-06T16:41:47;9.40;96.40
25360;DHT22;13311;51.386;0.016;2024-01-06T16:46:48;9.50;95.70
25360;DHT22;13311;51.386;0.016;2024-01-06T16:51:49;9.60;95.60
25360;DHT22;13311;51.386;0.016;2024-01-06T16:56:50;9.50;95.50
25360;DHT22;13311;51.386;0.016;2024-01-06T17:01:50;9.40;95.80
25360;DHT22;13311;51.386;0.016;2024-01-06T17:06:51;9.40;95.60
25360;DHT22;13311;51.386;0.016;2024-01-06T17:11:52;9.40;95.90
25360;DHT22;13311;51.386;0.016;2024-01-06T17:16:53;9.40;95.90
25360;DHT22;13311;51.386;0.016;2024-01-06T17:21:54;9.40;95.80
25360;DHT22;13311;51.386;0.016;2024-01-06T17:26:54;9.40;96.10
25360;DHT22;13311;51.386;0.016;2024-01-06T17:31:55;9.40;96.00
25360;DHT22;13311;51.386;0.016;2024-01-06T17:36:56;9.50;95.80
25360;DHT22;13311;51.386;0.016;2024-01-06T17:41:57;9.40;96.00
25360;DHT22;13311;51.386;0.016;2024-01-06T17:46:57;9.30;96.20
25360;DHT22;13311;51.386;0.016;2024-01-06T17:51:58;9.20;96.60
25360;DHT22;13311;51.386;0.016;2024-01-06T17:56:59;9.30;97.00
25360;DHT22;13311;51.386;0.016;2024-01-06T18:02:01;9.40;96.90
25360;DHT22;13311;51.386;0.016;2024-01-06T18:07:02;9.40;96.90
25360;DHT22;13311;51.386;0.016;2024-01-06T18:12:03;9.30;96.80
25360;DHT22;13311;51.386;0.016;2024-01-06T18:17:04;9.20;97.00
25360;DHT22;13311;51.386;0.016;2024-01-06T18:22:06;9.10;97.70
25360;DHT22;13311;51.386;0.016;2024-01-06T18:27:07;9.00;97.70
25360;DHT22;13311;51.386;0.016;2024-01-06T18:32:08;8.70;98.20
25360;DHT22;13311;51.386;0.016;2024-01-06T18:37:09;8.70;98.70
25360;DHT22;13311;51.386;0.016;2024-01-06T18:42:09;8.60;98.70
25360;DHT22;13311;51.386;0.016;2024-01-06T18:47:13;8.60;98.80
25360;DHT22;13311;51.386;0.016;2024-01-06T18:52:15;8.70;98.70
25360;DHT22;13311;51.386;0.016;2024-01-06T18:57:16;8.60;98.40
25360;DHT22;13311;51.386;0.016;2024-01-06T19:02:18;8.60;98.60
25360;DHT22;13311;51.386;0.016;2024-01-06T19:07:18;8.60;98.30
25360;DHT22;13311;51.386;0.016;2024-01-06T19:12:19;8.60;98.40
25360;DHT22;13311;51.386;0.016;2024-01-06T19:17:20;8.50;98.60
25360;DHT22;13311;51.386;0.016;2024-01-06T19:22:23;8.40;98.50
25360;DHT22;13311;51.386;0.016;2024-01-06T19:27:24;8.30;98.70
25360;DHT22;13311;51.386;0.016;2024-01-06T19:32:24;8.30;98.70
25360;DHT22;13311;51.386;0.016;2024-01-06T19:37:26;8.40;98.70
25360;DHT22;13311;51.386;0.016;2024-01-06T19:42:27;8.40;98.60
25360;DHT22;13311;51.386;0.016;2024-01-06T19:47:27;8.40;98.80
25360;DHT22;13311;51.386;0.016;2024-01-06T19:52:29;8.50;98.70
25360;DHT22;13311;51.386;0.016;2024-01-06T19:57:30;8.50;98.60
25360;DHT22;13311;51.386;0.016;2024-01-06T20:02:31;8.50;98.80
25360;DHT22;13311;51.386;0.016;2024-01-06T20:07:31;8.60;98.60
25360;DHT22;13311;51.386;0.016;2024-01-06T20:12:32;8.50;98.50
25360;DHT22;13311;51.386;0.016;2024-01-06T20:17:33;8.50;98.60
25360;DHT22;13311;51.386;0.016;2024-01-06T20:22:33;8.40;98.50
25360;DHT22;13311;51.386;0.016;2024-01-06T20:27:34;8.50;98.60
25360;DHT22;13311;51.386;0.016;2024-01-06T20:32:35;8.60;98.50
25360;DHT22;13311;51.386;0.016;2024-01-06T20:37:37;8.50;98.50
25360;DHT22;13311;51.386;0.016;2024-01-06T20:42:37;8.40;98.40
25360;DHT22;13311;51.386;0.016;2024-01-06T20:47:38;8.40;98.70
25360;DHT22;13311;51.386;0.016;2024-01-06T20:52:40;8.40;98.70
25360;DHT22;13311;51.386;0.016;2024-01-06T20:57:41;8.40;98.60
25360;DHT22;13311;51.386;0.016;2024-01-06T21:02:43;8.40;98.70
25360;DHT22;13311;51.386;0.016;2024-01-06T21:07:44;8.50;98.40
25360;DHT22;13311;51.386;0.016;2024-01-06T21:12:45;8.50;98.30
25360;DHT22;13311;51.386;0.016;2024-01-06T21:17:46;8.50;98.10
25360;DHT22;13311;51.386;0.016;2024-01-06T21:22:47;8.40;98.10
25360;DHT22;13311;51.386;0.016;2024-01-06T21:27:48;8.40;98.30
25360;DHT22;13311;51.386;0.016;2024-01-06T21:32:50;8.30;98.30
25360;DHT22;13311;51.386;0.016;2024-01-06T21:37:52;8.30;98.30
25360;DHT22;13311;51.386;0.016;2024-01-06T21:42:53;8.30;98.50
25360;DHT22;13311;51.386;0.016;2024-01-06T21:47:54;8.10;98.10
25360;DHT22;13311;51.386;0.016;2024-01-06T21:52:56;8.10;98.10
25360;DHT22;13311;51.386;0.016;2024-01-06T21:57:56;8.00;98.10
25360;DHT22;13311;51.386;0.016;2024-01-06T22:02:57;8.00;98.40
25360;DHT22;13311;51.386;0.016;2024-01-06T22:07:58;8.00;98.00
25360;DHT22;13311;51.386;0.016;2024-01-06T22:12:59;8.00;98.00
25360;DHT22;13311;51.386;0.016;2024-01-06T22:18:00;8.00;98.00
25360;DHT22;13311;51.386;0.016;2024-01-06T22:23:01;8.00;97.90
25360;DHT22;13311;51.386;0.016;2024-01-06T22:28:02;8.00;98.00
25360;DHT22;13311;51.386;0.016;2024-01-06T22:33:03;8.00;98.10
25360;DHT22;13311;51.386;0.016;2024-01-06T22:38:04;7.90;98.10
25360;DHT22;13311;51.386;0.016;2024-01-06T22:43:05;7.80;98.10
25360;DHT22;13311;51.386;0.016;2024-01-06T22:48:06;7.80;98.80
25360;DHT22;13311;51.386;0.016;2024-01-06T22:53:07;7.70;98.40
25360;DHT22;13311;51.386;0.016;2024-01-06T22:58:08;7.70;98.50
25360;DHT22;13311;51.386;0.016;2024-01-06T23:03:09;7.70;98.60
25360;DHT22;13311;51.386;0.016;2024-01-06T23:08:10;7.70;98.30
25360;DHT22;13311;51.386;0.016;2024-01-06T23:13:11;7.70;98.30
25360;DHT22;13311;51.386;0.016;2024-01-06T23:18:12;7.70;98.10
25360;DHT22;13311;51.386;0.016;2024-01-06T23:23:13;7.70;97.80
25360;DHT22;13311;51.386;0.016;2024-01-06T23:28:13;7.70;97.90
25360;DHT22;13311;51.386;0.016;2024-01-06T23:33:14;7.80;97.70
25360;DHT22;13311;51.386;0.016;2024-01-06T23:38:15;7.70;97.20
25360;DHT22;13311;51.386;0.016;2024-01-06T23:43:16;7.70;97.40
25360;DHT22;13311;51.386;0.016;2024-01-06T23:48:16;7.70;97.20
25360;DHT22;13311;51.386;0.016;2024-01-06T23:53:17;7.70;96.30
25360;DHT22;13311;51.386;0.016;2024-01-06T23:58:18;7.60;96.20
